Time;durP1;ratioP1;P1;durP2;ratioP2;P2;SDS_P1;SDS_P2;PMS_P1;PMS_P2;Temp;Humidity;BMP_temperature;BMP_pressure;BME280_temperature;BME280_humidity;BME280_pressure;Samples;Min_cycle;Max_cycle;Signal;HPM_P1;HPM_P2
2024/04/02 00:01:08;;;;;;;1999.90;999.90;;;10.60;99.90;;;;;;5055448;28;20093;-66
2024/04/02 00:03:34;;;;;;;1999.90;999.90;;;10.60;99.90;;;;;;5056202;28;20025;-70
2024/04/02 00:06:00;;;;;;;1999.90;999.90;;;10.60;99.90;;;;;;5052442;28;20040;-65
2024/04/02 00:08:28;;;;;;;1999.90;999.90;;;10.60;99.90;;;;;;5053356;28;20408;-64
2024/04/02 00:10:54;;;;;;;1999.90;999.90;;;10.40;99.90;;;;;;5062791;28;20123;-63
2024/04/02 00:13:20;;;;;;;1999.90;999.90;;;10.40;99.90;;;;;;5059337;28;20120;-66
2024/04/02 00:15:47;;;;;;;1999.90;999.90;;;10.40;99.90;;;;;;5061451;28;20107;-67
2024/04/02 00:18:15;;;;;;;1999.90;999.90;;;10.40;99.90;;;;;;5059169;28;20055;-61
2024/04/02 00:20:41;;;;;;;1999.90;999.90;;;10.50;99.90;;;;;;5052773;28;20029;-61
2024/04/02 00:23:07;;;;;;;1999.90;999.90;;;10.50;99.90;;;;;;5056577;28;20031;-63
2024/04/02 00:25:34;;;;;;;1999.90;999.90;;;10.40;99.90;;;;;;5055768;28;20060;-61
2024/04/02 00:28:00;;;;;;;1999.90;999.90;;;10.40;99.90;;;;;;5061580;28;20063;-61
2024/04/02 00:30:27;;;;;;;1999.90;999.90;;;10.30;99.90;;;;;;5059268;28;20405;-62
2024/04/02 00:32:54;;;;;;;1999.90;999.90;;;10.30;99.90;;;;;;5059695;28;20062;-63
2024/04/02 00:35:20;;;;;;;1999.90;999.90;;;10.40;99.90;;;;;;5050697;28;20031;-61
2024/04/02 00:37:50;;;;;;;1999.90;999.90;;;10.40;99.90;;;;;;5065389;28;20029;-63
2024/04/02 00:40:16;;;;;;;1999.90;999.90;;;10.50;99.90;;;;;;5054039;28;20025;-62
2024/04/02 00:42:43;;;;;;;1999.90;999.90;;;10.40;99.90;;;;;;5052800;28;20036;-61
2024/04/02 00:45:09;;;;;;;1999.90;999.90;;;10.40;99.90;;;;;;5052365;28;20086;-64
2024/04/02 00:47:35;;;;;;;1999.90;999.90;;;10.30;99.90;;;;;;5063327;28;20047;-61
2024/04/02 00:50:03;;;;;;;1999.90;999.90;;;10.30;99.90;;;;;;5067233;28;20032;-63
2024/04/02 00:52:29;;;;;;;1999.90;999.90;;;10.40;99.90;;;;;;5059494;28;20028;-64
2024/04/02 00:54:55;;;;;;;1999.90;999.90;;;10.40;99.90;;;;;;5063924;28;20477;-62
2024/04/02 00:57:22;;;;;;;1999.90;999.90;;;10.20;99.90;;;;;;5064293;28;20033;-63
2024/04/02 00:59:48;;;;;;;1999.90;999.90;;;10.10;99.90;;;;;;5058709;28;20056;-63
2024/04/02 01:02:14;;;;;;;1999.90;999.90;;;10.30;99.90;;;;;;5061594;28;20036;-64
2024/04/02 01:04:41;;;;;;;1999.90;999.90;;;10.10;99.90;;;;;;5062366;28;20025;-63
2024/04/02 01:07:07;;;;;;;1999.90;999.90;;;10.10;99.90;;;;;;5060943;28;20086;-64
2024/04/02 01:09:34;;;;;;;1999.90;999.90;;;10.20;99.90;;;;;;5066404;28;20052;-61
2024/04/02 01:12:00;;;;;;;1999.90;999.90;;;10.30;99.90;;;;;;5061077;28;20028;-62
2024/04/02 01:14:26;;;;;;;1999.90;999.90;;;10.20;99.90;;;;;;5065209;28;20481;-61
2024/04/02 01:16:52;;;;;;;1999.90;999.90;;;10.10;99.90;;;;;;5065459;28;20032;-61
2024/04/02 01:19:17;;;;;;;1999.90;999.90;;;10.00;99.90;;;;;;5065250;28;20428;-63
2024/04/02 01:21:43;;;;;;;1999.90;999.90;;;9.90;99.90;;;;;;5058775;28;20084;-61
2024/04/02 01:24:09;;;;;;;1999.90;999.90;;;9.90;99.90;;;;;;5065985;28;20025;-61
2024/04/02 01:26:34;;;;;;;1999.90;999.90;;;9.90;99.90;;;;;;5061066;28;20028;-63
2024/04/02 01:29:03;;;;;;;1999.90;999.90;;;10.00;99.90;;;;;;5064684;28;20028;-66
2024/04/02 01:31:30;;;;;;;1999.90;999.90;;;9.90;99.90;;;;;;5066557;28;20028;-63
2024/04/02 01:33:56;;;;;;;1999.90;999.90;;;10.00;99.90;;;;;;5060170;28;20070;-66
2024/04/02 01:36:22;;;;;;;1999.90;999.90;;;10.10;99.90;;;;;;5069234;28;20465;-66
2024/04/02 01:38:47;;;;;;;1999.90;999.90;;;10.20;99.90;;;;;;5064895;28;20136;-67
2024/04/02 01:41:13;;;;;;;1999.90;999.90;;;10.30;99.90;;;;;;5060672;28;20028;-67
2024/04/02 01:43:39;;;;;;;1999.90;999.90;;;10.40;99.90;;;;;;5069033;28;20032;-61
2024/04/02 01:46:05;;;;;;;1999.90;999.90;;;10.40;99.90;;;;;;5065665;28;20032;-67
2024/04/02 01:48:31;;;;;;;1999.90;999.90;;;10.50;99.90;;;;;;5066422;28;20570;-63
2024/04/02 01:50:57;;;;;;;1999.90;999.90;;;10.60;99.90;;;;;;5055478;28;20035;-67
2024/04/02 01:53:23;;;;;;;1999.90;999.90;;;10.70;99.90;;;;;;5066721;28;20393;-67
2024/04/02 01:55:48;;;;;;;1999.90;999.90;;;10.60;99.90;;;;;;5068929;28;20039;-68
2024/04/02 01:58:14;;;;;;;1999.90;999.90;;;10.70;99.90;;;;;;5070414;28;20108;-68
2024/04/02 02:00:40;;;;;;;1999.90;999.90;;;10.70;99.90;;;;;;5057782;28;20378;-67
2024/04/02 02:03:06;;;;;;;1999.90;999.90;;;10.90;99.90;;;;;;5056735;28;20477;-67
2024/04/02 02:05:31;;;;;;;1999.90;999.90;;;11.00;99.90;;;;;;5063452;28;20029;-65
2024/04/02 02:07:57;;;;;;;1999.90;999.90;;;10.90;99.90;;;;;;5059865;28;20067;-68
2024/04/02 02:10:23;;;;;;;1999.90;999.90;;;10.80;99.90;;;;;;5062262;28;20025;-67
2024/04/02 02:12:48;;;;;;;1999.90;999.90;;;10.90;99.90;;;;;;5070633;28;20492;-68
2024/04/02 02:15:14;;;;;;;1999.90;999.90;;;11.00;99.90;;;;;;5069029;28;20056;-68
2024/04/02 02:17:40;;;;;;;1999.90;999.90;;;10.90;99.90;;;;;;5069193;28;20378;-68
2024/04/02 02:20:06;;;;;;;1999.90;999.90;;;10.80;99.90;;;;;;5069601;28;20056;-67
2024/04/02 02:22:35;;;;;;;1999.90;999.90;;;10.60;99.90;;;;;;5066068;28;20032;-68
2024/04/02 02:25:01;;;;;;;1999.90;999.90;;;10.60;99.90;;;;;;5061720;28;20655;-67
2024/04/02 02:27:27;;;;;;;1999.90;999.90;;;10.50;99.90;;;;;;5064637;28;20044;-68
2024/04/02 02:29:53;;;;;;;1999.90;999.90;;;10.60;99.90;;;;;;5062929;28;20094;-68
2024/04/02 02:32:18;;;;;;;1999.90;999.90;;;10.60;99.90;;;;;;5069142;28;20036;-67
2024/04/02 02:34:44;;;;;;;1999.90;999.90;;;10.90;99.90;;;;;;5061631;28;20028;-66
2024/04/02 02:37:10;;;;;;;1999.90;999.90;;;10.70;99.90;;;;;;5067005;28;20029;-68
2024/04/02 02:39:35;;;;;;;1999.90;999.90;;;10.80;99.90;;;;;;5065141;28;20039;-68
2024/04/02 02:42:01;;;;;;;1999.90;999.90;;;10.60;99.90;;;;;;5068223;28;20481;-68
2024/04/02 02:44:27;;;;;;;1999.90;999.90;;;10.60;99.90;;;;;;5056801;28;20501;-68
2024/04/02 02:46:53;;;;;;;1999.90;999.90;;;10.60;99.90;;;;;;5070017;28;20041;-67
2024/04/02 02:49:18;;;;;;;1999.90;999.90;;;10.40;99.90;;;;;;5061127;28;20114;-66
2024/04/02 02:51:44;;;;;;;1999.90;999.90;;;10.60;99.90;;;;;;5069076;28;20142;-67
2024/04/02 02:54:10;;;;;;;1999.90;999.90;;;10.60;99.90;;;;;;5066488;28;20104;-68
2024/04/02 02:56:35;;;;;;;1999.90;999.90;;;10.50;99.90;;;;;;5058495;28;20116;-68
2024/04/02 02:59:01;;;;;;;1999.90;999.90;;;10.50;99.90;;;;;;5063738;28;20032;-67
2024/04/02 03:01:27;;;;;;;1999.90;999.90;;;10.50;99.90;;;;;;5066389;28;20139;-67
2024/04/02 03:03:52;;;;;;;1999.90;999.90;;;10.60;99.90;;;;;;5065250;28;20020;-66
2024/04/02 03:06:22;;;;;;;1999.90;999.90;;;10.60;99.90;;;;;;5057872;28;20028;-67
2024/04/02 03:08:47;;;;;;;1999.90;999.90;;;10.50;99.90;;;;;;5067020;28;20024;-68
2024/04/02 03:11:13;;;;;;;1999.90;999.90;;;10.50;99.90;;;;;;5069439;28;20484;-68
2024/04/02 03:13:39;;;;;;;1999.90;999.90;;;10.50;99.90;;;;;;5060431;28;20489;-68
2024/04/02 03:16:05;;;;;;;1999.90;999.90;;;10.60;99.90;;;;;;5054713;28;20017;-67
2024/04/02 03:18:31;;;;;;;1999.90;999.90;;;10.50;99.90;;;;;;5065744;28;20028;-68
2024/04/02 03:20:59;;;;;;;1999.90;999.90;;;10.60;99.90;;;;;;5062244;28;20028;-68
2024/04/02 03:23:28;;;;;;;1999.90;999.90;;;10.40;99.90;;;;;;5062337;28;20083;-67
2024/04/02 03:26:00;;;;;;;1999.90;999.90;;;10.60;99.90;;;;;;5069138;28;20021;-68
2024/04/02 03:28:30;;;;;;;1999.90;999.90;;;10.60;99.90;;;;;;5070042;28;20094;-68
2024/04/02 03:31:00;;;;;;;1999.90;999.90;;;10.40;99.90;;;;;;5063019;28;20067;-65
2024/04/02 03:33:27;;;;;;;1999.90;999.90;;;10.40;99.90;;;;;;5068551;28;20047;-66
2024/04/02 03:35:53;;;;;;;1999.90;999.90;;;10.50;99.90;;;;;;5060601;28;20416;-67
2024/04/02 03:38:19;;;;;;;1999.90;999.90;;;10.30;99.90;;;;;;5059860;28;20035;-67
2024/04/02 03:40:47;;;;;;;1999.90;999.90;;;10.40;99.90;;;;;;5070464;28;20024;-68
2024/04/02 03:43:12;;;;;;;1999.90;999.90;;;10.40;99.90;;;;;;5067196;28;20063;-63
2024/04/02 03:45:41;;;;;;;1999.90;999.90;;;10.30;99.90;;;;;;5070095;28;20052;-61
2024/04/02 03:48:08;;;;;;;1999.90;999.90;;;10.20;99.90;;;;;;5055708;28;20052;-61
2024/04/02 03:50:37;;;;;;;1999.90;999.90;;;10.20;99.90;;;;;;5063453;28;20025;-63
2024/04/02 03:53:04;;;;;;;1999.90;999.90;;;10.20;99.90;;;;;;5056412;28;20512;-63
2024/04/02 03:55:37;;;;;;;1999.90;999.90;;;10.20;99.90;;;;;;5070139;28;20020;-64
2024/04/02 03:58:03;;;;;;;1999.90;999.90;;;10.00;99.90;;;;;;5066564;28;20489;-67
2024/04/02 04:00:29;;;;;;;1999.90;999.90;;;10.10;99.90;;;;;;5064466;28;20062;-68
2024/04/02 04:02:56;;;;;;;1999.90;999.90;;;10.20;99.90;;;;;;5070093;28;20490;-68
2024/04/02 04:05:22;;;;;;;1999.90;999.90;;;10.30;99.90;;;;;;5067991;28;20067;-67
2024/04/02 04:07:48;;;;;;;1999.90;999.90;;;10.30;99.90;;;;;;5054422;28;20427;-67
2024/04/02 04:10:14;;;;;;;1999.90;999.90;;;10.20;99.90;;;;;;5066963;28;20071;-66
2024/04/02 04:12:40;;;;;;;1999.90;999.90;;;10.20;99.90;;;;;;5070698;28;20024;-67
2024/04/02 04:15:06;;;;;;;1999.90;999.90;;;10.10;99.90;;;;;;5064117;28;20082;-68
2024/04/02 04:17:31;;;;;;;1999.90;999.90;;;10.20;99.90;;;;;;5063962;28;20033;-68
2024/04/02 04:19:57;;;;;;;1999.90;999.90;;;10.20;99.90;;;;;;5068062;28;20123;-68
2024/04/02 04:22:22;;;;;;;1999.90;999.90;;;10.10;99.90;;;;;;5060380;28;20040;-65
2024/04/02 04:25:02;;;;;;;1999.90;999.90;;;10.10;99.90;;;;;;5062143;28;20410;-67
2024/04/02 04:27:32;;;;;;;1999.90;999.90;;;10.20;99.90;;;;;;5063483;28;20394;-61
2024/04/02 04:30:00;;;;;;;1999.90;999.90;;;10.20;99.90;;;;;;5067343;28;20052;-63
2024/04/02 04:32:26;;;;;;;1999.90;999.90;;;10.10;99.90;;;;;;5070449;28;20036;-63
2024/04/02 04:34:52;;;;;;;1999.90;999.90;;;10.10;99.90;;;;;;5066549;28;20035;-64
2024/04/02 04:37:17;;;;;;;1999.90;999.90;;;10.10;99.90;;;;;;5072117;28;20028;-65
2024/04/02 04:39:43;;;;;;;1999.90;999.90;;;10.00;99.90;;;;;;5067200;28;20017;-65
2024/04/02 04:42:09;;;;;;;1999.90;999.90;;;10.10;99.90;;;;;;5068931;28;20028;-67
2024/04/02 04:44:35;;;;;;;1999.90;999.90;;;10.10;99.90;;;;;;5056961;28;20029;-67
2024/04/02 04:47:00;;;;;;;1999.90;999.90;;;10.10;99.90;;;;;;5059479;28;20039;-62
2024/04/02 04:49:26;;;;;;;1999.90;999.90;;;10.20;99.90;;;;;;5064771;28;20118;-65
2024/04/02 04:51:52;;;;;;;1999.90;999.90;;;10.20;99.90;;;;;;5060164;28;20029;-65
2024/04/02 04:54:17;;;;;;;1999.90;999.90;;;10.30;99.90;;;;;;5064978;28;20032;-64
2024/04/02 04:56:43;;;;;;;1999.90;999.90;;;10.10;99.90;;;;;;5067403;28;20533;-62
2024/04/02 04:59:09;;;;;;;1999.90;999.90;;;10.10;99.90;;;;;;5066490;28;20529;-68
2024/04/02 05:01:34;;;;;;;1999.90;999.90;;;10.10;99.90;;;;;;5057712;28;20021;-61
2024/04/02 05:04:00;;;;;;;1999.90;999.90;;;10.10;99.90;;;;;;5052162;28;20513;-61
2024/04/02 05:06:26;;;;;;;1999.90;999.90;;;10.00;99.90;;;;;;5049552;28;20057;-66
2024/04/02 05:08:51;;;;;;;1999.90;999.90;;;10.00;99.90;;;;;;5060238;28;20802;-66
2024/04/02 05:11:17;;;;;;;1999.90;999.90;;;10.10;99.90;;;;;;5067692;28;20028;-64
2024/04/02 05:13:42;;;;;;;1999.90;999.90;;;10.20;99.90;;;;;;5054621;28;20044;-66
2024/04/02 05:16:08;;;;;;;1999.90;999.90;;;10.40;99.90;;;;;;5063677;28;20453;-67
2024/04/02 05:18:34;;;;;;;1999.90;999.90;;;10.50;99.90;;;;;;5066121;28;20036;-61
2024/04/02 05:21:00;;;;;;;1999.90;999.90;;;10.50;99.90;;;;;;5064567;28;20032;-61
2024/04/02 05:23:29;;;;;;;1999.90;999.90;;;10.50;99.90;;;;;;5070794;28;20032;-62
2024/04/02 05:25:58;;;;;;;1999.90;999.90;;;10.50;99.90;;;;;;5070736;28;20020;-61
2024/04/02 05:28:24;;;;;;;1999.90;999.90;;;10.40;99.90;;;;;;5067808;28;20492;-63
2024/04/02 05:30:50;;;;;;;1999.90;999.90;;;10.50;99.90;;;;;;5065381;28;20028;-61
2024/04/02 05:33:15;;;;;;;1999.90;999.90;;;10.50;99.90;;;;;;5070158;28;20040;-61
2024/04/02 05:35:41;;;;;;;1999.90;999.90;;;10.50;99.90;;;;;;5064694;28;20082;-61
2024/04/02 05:38:07;;;;;;;1999.90;999.90;;;10.60;99.90;;;;;;5070697;28;20033;-61
2024/04/02 05:40:33;;;;;;;1999.90;999.90;;;10.70;99.90;;;;;;5062449;28;20143;-61
2024/04/02 05:42:58;;;;;;;1999.90;999.90;;;10.70;99.90;;;;;;5069524;28;20044;-62
2024/04/02 05:45:24;;;;;;;1999.90;999.90;;;10.80;99.90;;;;;;5057859;28;20057;-61
2024/04/02 05:47:50;;;;;;;1999.90;999.90;;;10.80;99.90;;;;;;5053925;28;20128;-63
2024/04/02 05:50:17;;;;;;;1999.90;999.90;;;10.80;99.90;;;;;;5062242;28;20319;-61
2024/04/02 05:52:43;;;;;;;1999.90;999.90;;;10.80;99.90;;;;;;5070843;28;20107;-61
2024/04/02 05:55:10;;;;;;;1999.90;999.90;;;10.80;99.90;;;;;;5070161;28;20036;-63
2024/04/02 05:57:36;;;;;;;1999.90;999.90;;;10.90;99.90;;;;;;5061033;28;20020;-61
2024/04/02 06:00:05;;;;;;;1999.90;999.90;;;11.00;99.90;;;;;;5070804;28;20064;-61
2024/04/02 06:02:31;;;;;;;1999.90;999.90;;;11.00;99.90;;;;;;5069982;28;20050;-61
2024/04/02 06:04:57;;;;;;;1999.90;999.90;;;11.00;99.90;;;;;;5064125;28;20455;-61
2024/04/02 06:07:23;;;;;;;1999.90;999.90;;;11.10;99.90;;;;;;5068256;28;20067;-61
2024/04/02 06:09:49;;;;;;;1999.90;999.90;;;11.20;99.90;;;;;;5067350;28;20541;-61
2024/04/02 06:12:15;;;;;;;1999.90;999.90;;;11.30;99.90;;;;;;5068931;28;20024;-62
2024/04/02 06:14:41;;;;;;;1999.90;999.90;;;11.20;99.90;;;;;;5060985;28;20052;-61
2024/04/02 06:17:06;;;;;;;1999.90;999.90;;;11.30;99.90;;;;;;5070379;28;20385;-61
2024/04/02 06:19:33;;;;;;;1999.90;999.90;;;11.30;99.90;;;;;;5069446;28;20036;-61
2024/04/02 06:21:59;;;;;;;1999.90;999.90;;;11.30;99.90;;;;;;5070605;28;20096;-61
2024/04/02 06:24:25;;;;;;;1999.90;999.90;;;11.30;99.90;;;;;;5068919;28;20024;-61
2024/04/02 06:26:51;;;;;;;1999.90;999.90;;;11.30;99.90;;;;;;5070356;28;20040;-66
2024/04/02 06:29:18;;;;;;;1999.90;999.90;;;11.40;99.90;;;;;;5058081;28;20041;-67
2024/04/02 06:31:44;;;;;;;1999.90;999.90;;;11.50;99.90;;;;;;5069486;28;20021;-65
2024/04/02 06:34:10;;;;;;;1999.90;999.90;;;11.30;99.90;;;;;;5068951;28;20081;-62
2024/04/02 06:36:36;;;;;;;1999.90;999.90;;;11.20;99.90;;;;;;5070208;28;20033;-61
2024/04/02 06:39:02;;;;;;;1999.90;999.90;;;11.20;99.90;;;;;;5067029;28;20362;-62
2024/04/02 06:41:29;;;;;;;1999.90;999.90;;;11.30;99.90;;;;;;5070091;28;20085;-69
2024/04/02 06:43:54;;;;;;;1999.90;999.90;;;11.20;99.90;;;;;;5068762;28;20009;-61
2024/04/02 06:46:20;;;;;;;1999.90;999.90;;;11.30;99.90;;;;;;5068363;28;20029;-62
2024/04/02 06:48:46;;;;;;;1999.90;999.90;;;11.30;99.90;;;;;;5070204;28;20550;-61
2024/04/02 06:51:13;;;;;;;1999.90;999.90;;;11.20;99.90;;;;;;5069924;28;20435;-61
2024/04/02 06:53:39;;;;;;;1999.90;999.90;;;11.20;99.90;;;;;;5064196;28;20025;-61
2024/04/02 06:56:06;;;;;;;1999.90;999.90;;;11.30;99.90;;;;;;5068452;28;20047;-61
2024/04/02 06:58:32;;;;;;;1999.90;999.90;;;11.30;99.90;;;;;;5073892;28;20047;-61
2024/04/02 07:00:59;;;;;;;1999.90;999.90;;;11.50;99.90;;;;;;5073565;28;20020;-61
2024/04/02 07:03:25;;;;;;;1999.90;999.90;;;11.50;99.90;;;;;;5073570;28;20020;-61
2024/04/02 07:05:52;;;;;;;1999.90;999.90;;;11.60;99.90;;;;;;5072242;28;20025;-61
2024/04/02 07:08:23;;;;;;;1999.90;999.90;;;11.50;99.90;;;;;;5072467;28;20111;-61
2024/04/02 07:11:01;;;;;;;1999.90;999.90;;;11.40;99.90;;;;;;5069703;28;20090;-61
2024/04/02 07:13:27;;;;;;;1999.90;999.90;;;11.40;99.90;;;;;;5071309;28;20032;-61
2024/04/02 07:15:53;;;;;;;1999.90;999.90;;;11.50;99.90;;;;;;5073453;28;20136;-61
2024/04/02 07:18:20;;;;;;;1999.90;999.90;;;11.70;99.90;;;;;;5069764;28;20512;-65
2024/04/02 07:20:59;;;;;;;1999.90;999.90;;;11.80;99.90;;;;;;5073237;28;20033;-61
2024/04/02 07:23:25;;;;;;;1999.90;999.90;;;11.80;99.90;;;;;;5072773;28;20472;-61
2024/04/02 07:25:51;;;;;;;1999.90;999.90;;;11.90;99.90;;;;;;5072266;28;20035;-61
2024/04/02 07:28:17;;;;;;;1999.90;999.90;;;11.90;99.90;;;;;;5072986;28;20041;-62
2024/04/02 07:30:43;;;;;;;1999.90;999.90;;;11.80;99.90;;;;;;5072942;28;20107;-63
2024/04/02 07:33:09;;;;;;;1999.90;999.90;;;11.80;99.90;;;;;;5072157;28;20024;-61
2024/04/02 07:35:36;;;;;;;1999.90;999.90;;;11.70;99.90;;;;;;5066686;28;20144;-61
2024/04/02 07:38:02;;;;;;;1999.90;999.90;;;11.70;99.90;;;;;;5073079;28;20020;-61
2024/04/02 07:40:27;;;;;;;1999.90;999.90;;;11.60;99.90;;;;;;5073132;28;20036;-61
2024/04/02 07:42:53;;;;;;;1999.90;999.90;;;11.70;99.90;;;;;;5073144;28;20024;-61
2024/04/02 07:45:19;;;;;;;1999.90;999.90;;;11.70;99.90;;;;;;5072714;28;20471;-61
2024/04/02 07:47:47;;;;;;;1999.90;999.90;;;12.00;99.90;;;;;;5071105;28;20025;-61
2024/04/02 07:50:13;;;;;;;1999.90;999.90;;;12.10;99.90;;;;;;5070003;28;20475;-61
2024/04/02 07:52:39;;;;;;;1999.90;999.90;;;12.00;99.90;;;;;;5072464;28;20028;-61
2024/04/02 07:55:04;;;;;;;1999.90;999.90;;;12.00;99.90;;;;;;5072859;28;20067;-61
2024/04/02 07:57:30;;;;;;;1999.90;999.90;;;12.20;99.90;;;;;;5072488;28;20024;-61
2024/04/02 07:59:56;;;;;;;1999.90;999.90;;;12.50;99.90;;;;;;5072361;28;20481;-62
2024/04/02 08:02:22;;;;;;;1999.90;999.90;;;12.80;99.90;;;;;;5067487;28;20055;-61
2024/04/02 08:04:51;;;;;;;1999.90;999.90;;;12.80;99.90;;;;;;5072713;28;20405;-61
2024/04/02 08:07:20;;;;;;;1999.90;999.90;;;12.80;99.90;;;;;;5072143;28;20020;-63
2024/04/02 08:09:46;;;;;;;1999.90;999.90;;;12.80;99.90;;;;;;5060320;28;20029;-64
2024/04/02 08:12:12;;;;;;;1999.90;999.90;;;13.00;99.90;;;;;;5070786;28;20021;-66
2024/04/02 08:14:39;;;;;;;1999.90;999.90;;;13.00;99.90;;;;;;5072370;28;20025;-62
2024/04/02 08:17:05;;;;;;;1999.90;999.90;;;12.90;99.90;;;;;;5069284;28;20021;-63
2024/04/02 08:19:30;;;;;;;1999.90;999.90;;;12.70;99.90;;;;;;5071976;28;20029;-61
2024/04/02 08:21:56;;;;;;;1999.90;999.90;;;12.40;99.90;;;;;;5072313;28;20158;-60
2024/04/02 08:24:24;;;;;;;1999.90;999.90;;;12.30;99.90;;;;;;5072215;28;20095;-60
2024/04/02 08:26:50;;;;;;;1999.90;999.90;;;12.20;99.90;;;;;;5066648;28;20037;-61
2024/04/02 08:29:15;;;;;;;1999.90;999.90;;;12.20;99.90;;;;;;5067601;28;20040;-61
2024/04/02 08:31:41;;;;;;;1999.90;999.90;;;12.40;99.90;;;;;;5071568;28;20099;-64
2024/04/02 08:34:06;;;;;;;1999.90;999.90;;;12.50;99.90;;;;;;5061299;28;20457;-61
2024/04/02 08:36:32;;;;;;;1999.90;999.90;;;12.50;99.90;;;;;;5063416;28;20035;-61
2024/04/02 08:38:58;;;;;;;1999.90;999.90;;;12.70;99.90;;;;;;5071308;28;20035;-61
2024/04/02 08:41:26;;;;;;;1999.90;999.90;;;12.90;99.90;;;;;;5058363;28;20660;-61
2024/04/02 08:43:57;;;;;;;1999.90;999.90;;;12.80;99.90;;;;;;5070041;28;20112;-62
2024/04/02 08:46:26;;;;;;;1999.90;999.90;;;12.80;99.90;;;;;;5058332;28;20024;-61
2024/04/02 08:48:52;;;;;;;1999.90;999.90;;;12.70;99.90;;;;;;5070195;28;20424;-61
2024/04/02 08:51:21;;;;;;;1999.90;999.90;;;12.60;99.90;;;;;;5052862;28;20059;-61
2024/04/02 08:53:47;;;;;;;1999.90;999.90;;;12.50;99.90;;;;;;5059175;28;20520;-68
2024/04/02 08:56:15;;;;;;;1999.90;999.90;;;12.50;99.90;;;;;;5069443;28;20021;-60
2024/04/02 08:58:45;;;;;;;1999.90;999.90;;;12.50;99.90;;;;;;5071557;28;20067;-62
2024/04/02 09:01:14;;;;;;;1999.90;999.90;;;12.70;99.90;;;;;;5070974;28;20081;-61
2024/04/02 09:03:41;;;;;;;1999.90;999.90;;;12.70;99.90;;;;;;5069661;28;20408;-63
2024/04/02 09:06:07;;;;;;;1999.90;999.90;;;12.60;99.90;;;;;;5060052;28;20385;-61
2024/04/02 09:09:05;;;;;;;1999.90;999.90;;;12.50;99.90;;;;;;5065884;28;20037;-61
2024/04/02 09:11:32;;;;;;;1999.90;999.90;;;12.40;99.90;;;;;;5070393;28;20064;-61
2024/04/02 09:14:02;;;;;;;1999.90;999.90;;;12.70;99.90;;;;;;5054087;28;20031;-63
2024/04/02 09:16:34;;;;;;;1999.90;999.90;;;12.90;99.90;;;;;;5065752;28;20022;-70
2024/04/02 09:18:59;;;;;;;1999.90;999.90;;;12.70;99.90;;;;;;5065526;28;20531;-69
2024/04/02 09:21:27;;;;;;;1999.90;999.90;;;12.70;99.90;;;;;;5063020;28;20553;-61
2024/04/02 09:23:53;;;;;;;1999.90;999.90;;;12.50;99.90;;;;;;5052607;28;20021;-62
2024/04/02 09:26:22;;;;;;;1999.90;999.90;;;12.60;99.90;;;;;;5064301;28;20024;-68
2024/04/02 09:28:51;;;;;;;1999.90;999.90;;;12.60;99.90;;;;;;5068941;28;20048;-67
2024/04/02 09:31:17;;;;;;;1999.90;999.90;;;12.40;99.90;;;;;;5064856;28;20024;-69
2024/04/02 09:33:47;;;;;;;1999.90;999.90;;;12.30;99.90;;;;;;5060550;28;20477;-68
2024/04/02 09:36:41;;;;;;;1999.90;999.90;;;11.90;99.90;;;;;;5062295;28;20522;-62
2024/04/02 09:39:10;;;;;;;1999.90;999.90;;;11.80;99.90;;;;;;5056959;28;20036;-67
2024/04/02 09:41:40;;;;;;;1999.90;999.90;;;11.60;99.90;;;;;;5056150;28;20056;-66
2024/04/02 09:44:10;;;;;;;1999.90;999.90;;;11.50;99.90;;;;;;5062849;28;20051;-67
2024/04/02 09:46:39;;;;;;;1999.90;999.90;;;11.60;99.90;;;;;;5058523;28;20039;-67
2024/04/02 09:49:07;;;;;;;1999.90;999.90;;;11.60;99.90;;;;;;5060330;28;20032;-67
2024/04/02 09:51:34;;;;;;;1999.90;999.90;;;11.60;99.90;;;;;;5059541;28;20033;-66
2024/04/02 09:54:03;;;;;;;1999.90;999.90;;;11.60;99.90;;;;;;5059180;28;20289;-67
2024/04/02 09:56:31;;;;;;;1999.90;999.90;;;11.90;99.90;;;;;;5064658;28;20032;-67
2024/04/02 09:58:57;;;;;;;1999.90;999.90;;;12.10;99.90;;;;;;5058857;28;20032;-68
2024/04/02 10:01:28;;;;;;;1999.90;999.90;;;12.10;99.90;;;;;;5069751;28;20482;-66
2024/04/02 10:03:57;;;;;;;1999.90;999.90;;;12.00;99.90;;;;;;5062591;28;20536;-66
2024/04/02 10:06:26;;;;;;;1999.90;999.90;;;11.90;99.90;;;;;;5064528;28;20032;-68
2024/04/02 10:08:59;;;;;;;1999.90;999.90;;;11.90;99.90;;;;;;5067747;28;20039;-68
2024/04/02 10:11:38;;;;;;;1999.90;999.90;;;11.90;99.90;;;;;;5067898;28;20021;-67
2024/04/02 10:14:07;;;;;;;1999.90;999.90;;;11.90;99.90;;;;;;5064093;28;20029;-68
2024/04/02 10:16:40;;;;;;;1999.90;999.90;;;12.10;99.90;;;;;;5055927;28;20028;-68
2024/04/02 10:19:12;;;;;;;1999.90;999.90;;;12.00;99.90;;;;;;5057935;28;20040;-68
2024/04/02 10:21:37;;;;;;;1999.90;999.90;;;12.20;99.90;;;;;;5068943;28;20052;-70
2024/04/02 10:24:03;;;;;;;1999.90;999.90;;;12.30;99.90;;;;;;5063037;28;20056;-63
2024/04/02 10:26:31;;;;;;;1999.90;999.90;;;12.50;99.90;;;;;;5063482;28;20527;-67
2024/04/02 10:28:57;;;;;;;1999.90;999.90;;;12.80;99.90;;;;;;5060916;28;20036;-65
2024/04/02 10:31:34;;;;;;;1999.90;999.90;;;12.70;99.90;;;;;;5066373;28;20519;-68
2024/04/02 10:34:00;;;;;;;1999.90;999.90;;;12.90;99.90;;;;;;5073739;28;20350;-65
2024/04/02 10:36:25;;;;;;;1999.90;999.90;;;13.00;99.90;;;;;;5064302;28;20021;-68
2024/04/02 10:38:51;;;;;;;1999.90;999.90;;;13.00;99.90;;;;;;5063985;28;20047;-63
2024/04/02 10:41:17;;;;;;;1999.90;999.90;;;13.00;99.90;;;;;;5058307;28;20090;-67
2024/04/02 10:43:43;;;;;;;1999.90;999.90;;;12.90;99.90;;;;;;5068089;28;20032;-65
2024/04/02 10:46:09;;;;;;;1999.90;999.90;;;12.80;99.90;;;;;;5071648;28;20047;-66
2024/04/02 10:48:35;;;;;;;1999.90;999.90;;;13.00;99.90;;;;;;5063947;28;20509;-63
2024/04/02 10:51:01;;;;;;;1999.90;999.90;;;13.20;99.90;;;;;;5071579;28;20033;-66
2024/04/02 10:53:27;;;;;;;1999.90;999.90;;;13.20;99.90;;;;;;5063865;28;20393;-66
2024/04/02 10:55:52;;;;;;;1999.90;999.90;;;13.20;99.90;;;;;;5061308;28;20385;-65
2024/04/02 10:58:19;;;;;;;1999.90;999.90;;;13.20;99.90;;;;;;5066356;28;20194;-71
2024/04/02 11:00:45;;;;;;;1999.90;999.90;;;13.20;99.90;;;;;;5071150;28;20033;-66
2024/04/02 11:03:12;;;;;;;1999.90;999.90;;;13.40;99.90;;;;;;5072166;28;20052;-64
2024/04/02 11:05:38;;;;;;;1999.90;999.90;;;13.20;99.90;;;;;;5069034;28;20120;-66
2024/04/02 11:08:08;;;;;;;1999.90;999.90;;;13.00;99.90;;;;;;5066638;28;20790;-62
2024/04/02 11:10:34;;;;;;;1999.90;999.90;;;13.20;99.90;;;;;;5072087;28;20032;-68
2024/04/02 11:12:59;;;;;;;1999.90;999.90;;;13.10;99.90;;;;;;5071580;28;20367;-67
2024/04/02 11:15:25;;;;;;;1999.90;999.90;;;13.10;99.90;;;;;;5064774;28;20032;-68
2024/04/02 11:17:51;;;;;;;1999.90;999.90;;;12.90;99.90;;;;;;5070070;28;20206;-69
2024/04/02 11:20:16;;;;;;;1999.90;999.90;;;13.00;99.90;;;;;;5065408;28;20047;-67
2024/04/02 11:25:26;;;;;;;1999.90;999.90;;;13.30;99.90;;;;;;5071763;28;20051;-68
2024/04/02 11:28:03;;;;;;;1999.90;999.90;;;13.30;99.90;;;;;;5071464;28;20029;-67
2024/04/02 11:30:28;;;;;;;1999.90;999.90;;;13.40;99.90;;;;;;5062787;28;20050;-67
2024/04/02 11:32:54;;;;;;;1999.90;999.90;;;13.10;99.90;;;;;;5068649;28;20021;-66
2024/04/02 11:35:20;;;;;;;1999.90;999.90;;;13.00;99.90;;;;;;5062600;28;20424;-65
2024/04/02 11:37:45;;;;;;;1999.90;999.90;;;13.20;99.90;;;;;;5067959;28;20751;-67
2024/04/02 11:40:15;;;;;;;1999.90;999.90;;;13.30;99.90;;;;;;5066033;28;20021;-69
2024/04/02 11:42:42;;;;;;;1999.90;999.90;;;13.10;99.90;;;;;;5070934;28;20037;-67
2024/04/02 11:45:08;;;;;;;1999.90;999.90;;;12.90;99.90;;;;;;5070499;28;20023;-66
2024/04/02 11:47:34;;;;;;;1999.90;999.90;;;13.00;99.90;;;;;;5063064;28;20028;-65
2024/04/02 11:50:01;;;;;;;1999.90;999.90;;;13.20;99.90;;;;;;5071203;28;20384;-67
2024/04/02 11:52:27;;;;;;;1999.90;999.90;;;13.40;99.90;;;;;;5071062;28;20032;-64
2024/04/02 11:54:52;;;;;;;1999.90;999.90;;;13.50;99.90;;;;;;5067704;28;20025;-67
2024/04/02 12:00:12;;;;;;;1999.90;999.90;;;13.30;99.90;;;;;;5070490;28;20031;-62
2024/04/02 12:02:41;;;;;;;1999.90;999.90;;;13.40;99.90;;;;;;5051103;28;20029;-68